Detall de PIREP

Printer-friendly versionPDF version

[2013/06/22 22:28:00]
Flight IATA:CT1004
Pilot Number:026
Company ICAO:CAT
Aircraft Type:DC85/A
PAX:0
Aircraft Registration:CARGO
Departing Airport: LFMP
Destination Airport: LELC
Alternate Airport:LEAL
Online: VATSIM
Route:BEXUR UN855 SISMO UZ237 OKITI UM603
Flight Level:F310
No Slew and time accel
No pause
Crash detect
Detect pilot in Cockpit between each 30 and 45 minutes
22:28 Zero fuel Weight: 209755 Lbs, Fuel Weight: 28002 Lbs
22:28 VATSIM:LFMP 222200Z AUTO 31009KT 9999 NSC 21/11 Q1020
22:28 VATSIM:LELC 222100Z 11003KT 070V150 CAVOK 22/19 Q1021 NOSIG
22:28 VOICE CATALONIAN / FLAMA DEL CANIGO
22:34 Parking Brakes off
22:44 Take-off
22:44 Take off Weight: 236617 Lbs
22:44 Wind: 302º @ 006 Knots Heading: 327º
22:44 POS N42º 45´ 09´´ E002º 51´ 46´´
22:44 Flaps:2 at 161 Knots
22:44 Gear Up: 162 Knots
22:45 Flaps:1 at 218 Knots
22:46 Flaps:0 at 213 Knots
22:59Wind:254º@003 Knots Heading: 178º Ground Speed: 391 Knots Altitude 27342 ft
23:03 TOC
23:03 Fuel Weight: 21032 Lb
23:14 Wind:194º@010 Knots Heading: 210º Ground Speed: 469 Knots Altitude 31213 ft
23:29 Wind:228º@019 Knots Heading: 248º Ground Speed: 462 Knots Altitude 31220 ft
23:35 TOD
23:35 Fuel Weight: 13839 Lb
23:44 Wind:114º@010 Knots Heading: 180º Ground Speed: 395 Knots Altitude 16866 ft
23:54 Flaps:1 at 182 Knots
23:56 Flaps:2 at 153 Knots
23:57 Gear Down: 150 Knots
23:58 Flaps:3 at 151 Knots
23:59 Wind:103º@005 Knots Heading: 046º Ground Speed: 135 Knots Altitude 1404 ft
23:59 Flaps:4 at 139 Knots
00:00 Flaps:5 at 146 Knots
00:01 TouchDown:Rate -158 ft/min Speed: 129 Knots
00:01 VATSIM:LELC 222100Z 11003KT 070V150 CAVOK 22/19 Q1021 NOSIG
00:01 Land
00:01 Wind:112º@003 Knots
00:01 Heading: 045º
00:01 Flight Duration: 01:17
00:01 Landing Weight: 220728 Lbs
00:01 POS N37º 46´ 29´´ W000º 48´ 44´´
00:06 Parking brakes on
00:06 Block to Block Duration: 01:32
00:06 Final Fuel: 10507 Lbls
00:06 Spent Fuel: 17495 Lbls
00:06 Flight Length: 380 NM
00:06 TOD Land Length: 134 NM

Exportar CSV

Powered by Drupal - Modified by Danger4k